Terminal Aerodrome Forecast
Issued by NWS Portland, OR

Home | Current Version | Previous Version | Text Only | Print | Product List | Glossary On
Versions: 1 2 3 4 5 6 7 8 9 10 11 12 13 14 15 16 17 18 19 20
000
FTUS46 KPQR 180520
TAFHIO
TAF
KHIO 180520Z 1806/1906 28008KT P6SM VCSH SCT025 BKN040
     FM181200 VRB02KT 4SM BR BKN007
     FM181700 36003KT P6SM SCT200=

USA.gov is the U.S. government's official web portal to all federal, state and local government web resources and services.